Time;durP1;ratioP1;P1;durP2;ratioP2;P2;SDS_P1;SDS_P2;PMS_P1;PMS_P2;Temp;Humidity;BMP_temperature;BMP_pressure;BME280_temperature;BME280_humidity;BME280_pressure;Samples;Min_cycle;Max_cycle;Signal;HPM_P1;HPM_P2
2022/04/13 00:00:12;;;;;;;125.03;115.13;;;16.00;76.10;;;;;;5014809;28;20128;-83
2022/04/13 00:02:39;;;;;;;123.03;113.20;;;16.00;76.20;;;;;;5015089;28;20065;-83
2022/04/13 00:05:07;;;;;;;123.85;113.75;;;15.90;76.50;;;;;;4998333;28;20061;-83
2022/04/13 00:07:34;;;;;;;125.25;115.05;;;15.80;76.90;;;;;;5013977;28;20615;-83
2022/04/13 00:10:01;;;;;;;124.88;114.78;;;15.70;77.60;;;;;;4997863;28;20144;-83
2022/04/13 00:12:30;;;;;;;127.30;117.10;;;15.70;78.00;;;;;;5014729;28;20050;-83
2022/04/13 00:14:57;;;;;;;125.50;115.35;;;15.70;78.50;;;;;;5014834;28;20148;-83
2022/04/13 00:17:26;;;;;;;127.00;116.55;;;15.60;78.80;;;;;;5014645;28;20520;-83
2022/04/13 00:19:52;;;;;;;126.00;115.47;;;15.60;79.20;;;;;;4998869;28;20054;-83
2022/04/13 00:22:19;;;;;;;123.55;113.45;;;15.70;79.10;;;;;;4998177;28;20136;-83
2022/04/13 00:24:46;;;;;;;123.32;113.05;;;15.60;79.00;;;;;;5014693;28;20064;-83
2022/04/13 00:27:13;;;;;;;124.22;113.88;;;15.60;79.10;;;;;;4998151;28;20061;-83
2022/04/13 00:29:40;;;;;;;122.00;111.95;;;15.50;79.30;;;;;;4998521;28;20097;-83
2022/04/13 00:32:08;;;;;;;121.13;111.15;;;15.50;79.30;;;;;;5014715;28;20050;-83
2022/04/13 00:34:36;;;;;;;120.13;110.32;;;15.40;80.00;;;;;;5014791;28;20141;-83
2022/04/13 00:37:04;;;;;;;121.50;111.57;;;15.30;80.50;;;;;;4997846;28;20057;-83
2022/04/13 00:39:30;;;;;;;121.50;111.60;;;15.20;81.20;;;;;;5014558;28;20492;-82
2022/04/13 00:41:58;;;;;;;123.18;113.22;;;15.10;82.00;;;;;;4998013;28;20054;-83
2022/04/13 00:44:27;;;;;;;122.47;112.38;;;15.00;82.40;;;;;;5014798;28;20662;-83
2022/04/13 00:46:55;;;;;;;126.72;116.20;;;14.90;82.90;;;;;;5014381;28;20057;-83
2022/04/13 00:49:22;;;;;;;123.32;112.93;;;14.90;82.90;;;;;;5014369;28;20508;-82
2022/04/13 00:51:51;;;;;;;122.03;111.85;;;14.90;83.20;;;;;;5014273;28;20046;-83
2022/04/13 00:54:20;;;;;;;121.88;111.80;;;14.90;84.40;;;;;;5014109;28;20500;-84
2022/04/13 00:56:49;;;;;;;121.95;111.78;;;14.80;85.20;;;;;;5014373;28;20532;-83
2022/04/13 00:59:17;;;;;;;124.70;114.40;;;14.90;85.30;;;;;;5013909;28;20054;-83
2022/04/13 01:01:48;;;;;;;122.35;112.15;;;14.90;84.90;;;;;;5000721;28;20068;-83
2022/04/13 01:04:16;;;;;;;121.72;111.30;;;14.80;84.90;;;;;;5017712;28;20061;-83
2022/04/13 01:06:44;;;;;;;124.35;113.95;;;14.80;84.70;;;;;;5001419;28;20137;-82
2022/04/13 01:09:14;;;;;;;124.38;113.55;;;14.80;84.40;;;;;;5017240;28;20058;-83
2022/04/13 01:11:41;;;;;;;121.90;111.70;;;14.80;84.10;;;;;;5017442;28;20101;-82
2022/04/13 01:14:10;;;;;;;125.05;114.68;;;14.80;83.90;;;;;;5017296;28;20048;-83
2022/04/13 01:16:39;;;;;;;125.65;114.95;;;14.80;83.70;;;;;;5001260;28;20057;-83
2022/04/13 01:19:07;;;;;;;125.25;114.85;;;14.80;83.60;;;;;;5017385;28;20491;-83
2022/04/13 01:21:45;;;;;;;124.20;113.60;;;14.80;83.40;;;;;;5017495;28;20050;-83
2022/04/13 01:24:14;;;;;;;124.53;114.13;;;14.80;83.20;;;;;;5017123;28;20054;-83
2022/04/13 01:26:42;;;;;;;123.95;113.45;;;14.80;83.10;;;;;;5000812;28;20124;-82
2022/04/13 01:29:09;;;;;;;123.68;113.07;;;14.80;83.00;;;;;;5016775;28;20132;-82
2022/04/13 01:31:36;;;;;;;124.18;113.32;;;14.80;82.80;;;;;;5017441;28;20089;-83
2022/04/13 01:34:03;;;;;;;125.20;114.50;;;14.80;82.70;;;;;;5016986;28;20056;-82
2022/04/13 01:36:30;;;;;;;123.28;112.70;;;14.80;82.60;;;;;;5001022;28;20409;-82
2022/04/13 01:38:57;;;;;;;121.85;111.70;;;14.70;82.70;;;;;;5016894;28;20149;-82
2022/04/13 01:41:25;;;;;;;121.10;110.80;;;14.70;83.40;;;;;;5000689;28;20052;-83
2022/04/13 01:43:52;;;;;;;122.00;111.78;;;14.70;84.20;;;;;;5000530;28;20129;-83
2022/04/13 01:46:19;;;;;;;122.97;112.32;;;14.70;84.70;;;;;;5016889;28;20606;-83
2022/04/13 01:48:46;;;;;;;121.05;111.00;;;14.70;84.80;;;;;;5000380;28;20496;-82
2022/04/13 01:51:14;;;;;;;120.40;110.30;;;14.70;84.30;;;;;;5000188;28;20087;-83
2022/04/13 01:53:41;;;;;;;121.53;111.13;;;14.60;83.90;;;;;;5016608;28;20057;-83
2022/04/13 01:56:08;;;;;;;120.40;110.13;;;14.60;84.00;;;;;;5016433;28;20133;-83
2022/04/13 01:58:36;;;;;;;121.70;111.47;;;14.60;84.40;;;;;;5015971;28;20054;-83
2022/04/13 02:01:03;;;;;;;122.80;112.30;;;14.60;84.70;;;;;;5000513;28;20081;-82
2022/04/13 02:03:30;;;;;;;120.25;110.30;;;14.60;85.10;;;;;;5016651;28;20060;-83
2022/04/13 02:05:57;;;;;;;123.30;113.00;;;14.60;85.30;;;;;;5016844;28;20046;-82
2022/04/13 02:08:26;;;;;;;122.30;111.90;;;14.60;85.30;;;;;;5016211;28;20056;-83
2022/04/13 02:10:53;;;;;;;122.35;111.97;;;14.60;85.60;;;;;;5016451;28;20058;-83
2022/04/13 02:13:22;;;;;;;121.80;111.25;;;14.60;85.50;;;;;;4998933;28;20581;-82
2022/04/13 02:15:50;;;;;;;124.35;113.50;;;14.60;85.40;;;;;;5000089;28;20057;-83
2022/04/13 02:18:17;;;;;;;123.03;112.60;;;14.60;85.40;;;;;;5016205;28;20050;-83
2022/04/13 02:20:44;;;;;;;125.90;114.72;;;14.50;85.20;;;;;;5016659;28;20499;-82
2022/04/13 02:23:11;;;;;;;125.10;114.10;;;14.60;85.20;;;;;;5016174;28;20097;-83
2022/04/13 02:25:38;;;;;;;125.30;114.45;;;14.60;85.20;;;;;;5000108;28;20050;-82
2022/04/13 02:28:05;;;;;;;125.60;114.97;;;14.60;85.20;;;;;;5000268;28;20631;-83
2022/04/13 02:30:32;;;;;;;123.45;112.75;;;14.50;85.40;;;;;;5016447;28;20054;-83
2022/04/13 02:33:01;;;;;;;124.32;113.82;;;14.50;85.60;;;;;;5016269;28;20362;-83
2022/04/13 02:35:28;;;;;;;124.40;113.88;;;14.40;85.80;;;;;;5000010;28;20129;-83
2022/04/13 02:37:55;;;;;;;124.63;114.05;;;14.40;86.10;;;;;;4999975;28;20516;-82
2022/04/13 02:40:22;;;;;;;123.38;112.72;;;14.40;86.20;;;;;;4999788;28;20054;-83
2022/04/13 02:42:49;;;;;;;122.47;112.07;;;14.30;86.40;;;;;;4999873;28;20464;-82
2022/04/13 02:45:16;;;;;;;122.07;111.78;;;14.30;87.10;;;;;;4999682;28;20071;-83
2022/04/13 02:47:43;;;;;;;123.90;113.40;;;14.20;87.40;;;;;;5016208;28;20064;-82
2022/04/13 02:50:11;;;;;;;123.15;112.60;;;14.20;88.00;;;;;;4999019;28;20522;-83
2022/04/13 02:52:38;;;;;;;124.18;113.75;;;14.20;88.40;;;;;;4999258;28;20058;-83
2022/04/13 02:55:08;;;;;;;123.20;112.85;;;14.20;88.50;;;;;;5015626;28;20054;-82
2022/04/13 02:57:36;;;;;;;123.13;112.50;;;14.20;89.20;;;;;;5015586;28;20046;-83
2022/04/13 03:00:04;;;;;;;122.90;112.30;;;14.20;89.50;;;;;;5015854;28;20061;-82
2022/04/13 03:02:31;;;;;;;121.72;111.60;;;14.10;89.80;;;;;;4999678;28;20077;-82
2022/04/13 03:04:57;;;;;;;122.25;111.78;;;14.10;89.90;;;;;;4999176;28;20046;-83
2022/04/13 03:07:29;;;;;;;122.88;112.28;;;14.10;90.00;;;;;;5015465;28;20065;-83
2022/04/13 03:09:56;;;;;;;123.10;112.50;;;14.10;90.00;;;;;;5015418;28;20049;-82
2022/04/13 03:12:24;;;;;;;122.43;111.88;;;14.00;90.00;;;;;;5015412;28;20060;-82
2022/04/13 03:14:51;;;;;;;122.68;111.93;;;14.00;90.10;;;;;;5015590;28;20129;-82
2022/04/13 03:17:18;;;;;;;124.50;113.50;;;14.00;90.10;;;;;;5015411;28;20107;-82
2022/04/13 03:19:45;;;;;;;123.15;112.43;;;14.00;90.40;;;;;;5015617;28;20050;-82
2022/04/13 03:22:12;;;;;;;124.20;113.57;;;13.90;90.20;;;;;;5015927;28;20053;-82
2022/04/13 03:24:40;;;;;;;122.70;112.15;;;13.90;90.30;;;;;;5015551;28;20056;-83
2022/04/13 03:27:07;;;;;;;123.65;112.97;;;13.90;90.40;;;;;;5015576;28;20507;-82
2022/04/13 03:29:34;;;;;;;124.32;113.32;;;13.80;90.40;;;;;;5015370;28;20046;-82
2022/04/13 03:32:00;;;;;;;124.72;113.72;;;13.90;90.50;;;;;;5015164;28;20137;-82
2022/04/13 03:34:29;;;;;;;122.72;112.00;;;13.80;90.60;;;;;;4999271;28;20053;-82
2022/04/13 03:36:57;;;;;;;124.47;112.90;;;13.80;90.60;;;;;;5015280;28;20046;-82
2022/04/13 03:39:24;;;;;;;123.85;112.88;;;13.80;90.70;;;;;;5015434;28;20165;-82
2022/04/13 03:41:53;;;;;;;123.65;112.88;;;13.80;90.80;;;;;;5015392;28;20056;-83
2022/04/13 03:44:20;;;;;;;124.65;113.57;;;13.70;90.80;;;;;;5015646;28;20123;-82
2022/04/13 03:46:47;;;;;;;126.03;115.15;;;13.80;90.80;;;;;;4998708;28;20091;-82
2022/04/13 03:49:14;;;;;;;124.00;112.97;;;13.80;90.90;;;;;;5015076;28;20045;-83
2022/04/13 03:51:41;;;;;;;124.97;113.88;;;13.70;90.90;;;;;;5014708;28;20137;-82
2022/04/13 03:54:08;;;;;;;123.68;112.68;;;13.70;90.90;;;;;;5014914;28;20053;-82
2022/04/13 03:56:36;;;;;;;123.28;112.60;;;13.70;91.00;;;;;;5015142;28;20057;-83
2022/04/13 03:59:07;;;;;;;121.95;111.38;;;13.70;91.10;;;;;;5014464;28;20077;-82
2022/04/13 04:01:34;;;;;;;124.70;113.57;;;13.70;91.30;;;;;;5014532;28;20475;-82
2022/04/13 04:04:01;;;;;;;124.03;113.38;;;13.70;91.30;;;;;;5014289;28;20495;-83
2022/04/13 04:06:28;;;;;;;122.82;112.20;;;13.70;91.20;;;;;;5013919;28;20512;-82
2022/04/13 04:08:54;;;;;;;122.13;111.63;;;13.70;91.20;;;;;;5014893;28;20084;-82
2022/04/13 04:11:21;;;;;;;123.15;112.32;;;13.70;91.30;;;;;;5013864;28;20060;-82
2022/04/13 04:13:48;;;;;;;121.95;111.15;;;13.60;91.40;;;;;;5014957;28;20054;-83
2022/04/13 04:16:17;;;;;;;120.32;109.82;;;13.70;91.30;;;;;;4998527;28;20046;-82
2022/04/13 04:18:45;;;;;;;119.82;109.60;;;13.70;91.30;;;;;;5014579;28;20085;-83
2022/04/13 04:21:12;;;;;;;121.50;110.70;;;13.70;91.30;;;;;;5014825;28;20057;-83
2022/04/13 04:23:39;;;;;;;121.32;110.95;;;13.60;91.40;;;;;;5014677;28;20060;-83
2022/04/13 04:26:06;;;;;;;121.45;111.28;;;13.60;91.50;;;;;;4998347;28;20062;-82
2022/04/13 04:28:33;;;;;;;119.32;109.10;;;13.70;91.60;;;;;;5014066;28;20142;-82
2022/04/13 04:31:00;;;;;;;119.00;108.55;;;13.60;91.60;;;;;;4997958;28;20399;-83
2022/04/13 04:33:28;;;;;;;119.40;108.95;;;13.60;91.50;;;;;;5014449;28;20058;-82
2022/04/13 04:35:55;;;;;;;119.82;109.40;;;13.60;91.60;;;;;;4999539;28;20085;-82
2022/04/13 04:38:21;;;;;;;123.97;112.97;;;13.70;91.60;;;;;;5017542;28;20054;-82
2022/04/13 04:40:48;;;;;;;121.13;110.53;;;13.60;91.60;;;;;;5017663;28;20049;-83
2022/04/13 04:43:15;;;;;;;122.05;111.60;;;13.60;91.50;;;;;;5001327;28;20481;-83
2022/04/13 04:45:42;;;;;;;121.32;110.82;;;13.60;91.70;;;;;;5001761;28;20058;-83
2022/04/13 04:48:09;;;;;;;124.10;113.13;;;13.60;91.70;;;;;;5001520;28;20050;-82
2022/04/13 04:50:38;;;;;;;123.38;112.70;;;13.60;91.70;;;;;;5017566;28;20056;-82
2022/04/13 04:53:05;;;;;;;121.65;111.05;;;13.60;91.70;;;;;;5017610;28;20785;-82
2022/04/13 04:55:32;;;;;;;121.57;111.18;;;13.60;91.80;;;;;;5017750;28;20054;-83
2022/04/13 04:58:00;;;;;;;122.50;111.57;;;13.60;91.80;;;;;;5000939;28;20120;-83
2022/04/13 05:00:27;;;;;;;125.35;114.30;;;13.60;91.80;;;;;;5000822;28;20064;-82
2022/04/13 05:02:54;;;;;;;124.72;113.32;;;13.50;91.90;;;;;;5033005;28;20084;-83
2022/04/13 05:05:23;;;;;;;123.25;112.68;;;13.50;92.00;;;;;;5016831;28;20120;-83
2022/04/13 05:07:51;;;;;;;123.55;113.05;;;13.50;92.00;;;;;;5000312;28;20127;-82
2022/04/13 05:10:18;;;;;;;122.95;111.97;;;13.50;92.10;;;;;;5017135;28;20046;-83
2022/04/13 05:12:48;;;;;;;122.47;111.80;;;13.50;92.00;;;;;;5017366;28;20058;-83
2022/04/13 05:15:15;;;;;;;124.95;114.15;;;13.40;92.20;;;;;;5017064;28;20065;-82
2022/04/13 05:17:42;;;;;;;127.18;115.75;;;13.40;92.30;;;;;;5017061;28;20050;-83
2022/04/13 05:20:11;;;;;;;127.05;115.75;;;13.40;92.40;;;;;;5016922;28;20075;-82
2022/04/13 05:22:38;;;;;;;124.60;113.50;;;13.40;92.50;;;;;;5017177;28;20049;-82
2022/04/13 05:25:09;;;;;;;121.97;111.18;;;13.30;92.50;;;;;;5017552;28;20058;-82
2022/04/13 05:27:36;;;;;;;125.95;114.70;;;13.30;92.70;;;;;;5001114;28;20145;-82
2022/04/13 05:30:04;;;;;;;125.50;114.03;;;13.40;92.80;;;;;;5017609;28;20049;-82
2022/04/13 05:32:31;;;;;;;128.07;117.13;;;13.30;92.90;;;;;;5016395;28;20162;-82
2022/04/13 05:35:00;;;;;;;127.20;116.13;;;13.30;93.00;;;;;;5009133;28;20568;-81
2022/04/13 05:37:27;;;;;;;125.53;114.53;;;13.30;93.00;;;;;;5015645;28;20495;-82
2022/04/13 05:39:54;;;;;;;126.78;115.35;;;13.20;93.00;;;;;;5015745;28;20058;-82
2022/04/13 05:42:24;;;;;;;127.57;116.07;;;13.20;93.10;;;;;;5016521;28;20065;-84
2022/04/13 05:44:51;;;;;;;126.05;114.80;;;13.20;93.20;;;;;;5016211;28;20534;-82
2022/04/13 05:47:18;;;;;;;125.03;113.80;;;13.20;93.20;;;;;;5014120;28;20096;-82
2022/04/13 05:49:45;;;;;;;130.32;118.43;;;13.20;93.30;;;;;;4999631;28;20050;-82
2022/04/13 05:52:12;;;;;;;127.43;116.07;;;13.20;93.40;;;;;;5016443;28;20543;-83
2022/04/13 05:54:39;;;;;;;127.72;115.88;;;13.10;93.60;;;;;;4999321;28;20049;-82
2022/04/13 05:57:06;;;;;;;;;;;13.10;93.50;;;;;;5015690;28;20125;-82
2022/04/13 05:59:34;;;;;;;126.93;115.13;;;13.20;93.20;;;;;;4998879;28;20015;-82
2022/04/13 06:02:01;;;;;;;127.78;115.35;;;13.10;93.50;;;;;;5015571;28;20580;-83
2022/04/13 06:04:28;;;;;;;128.13;116.40;;;13.10;93.60;;;;;;5031055;28;20511;-81
2022/04/13 06:06:55;;;;;;;128.00;116.53;;;13.10;93.70;;;;;;5014703;28;20137;-83
2022/04/13 06:09:23;;;;;;;128.13;116.63;;;13.10;93.70;;;;;;4997931;28;20050;-84
2022/04/13 06:11:50;;;;;;;127.32;116.07;;;13.10;93.80;;;;;;5032301;28;20058;-84
2022/04/13 06:14:16;;;;;;;;;;;13.10;93.80;;;;;;5014975;28;20128;-84
2022/04/13 06:16:45;;;;;;;127.57;116.07;;;13.10;93.60;;;;;;4998783;28;19968;-83
2022/04/13 06:19:12;;;;;;;128.32;116.40;;;13.10;94.00;;;;;;4996901;28;20060;-81
2022/04/13 06:21:39;;;;;;;129.23;117.30;;;13.10;94.20;;;;;;5015035;28;20349;-80
2022/04/13 06:24:07;;;;;;;128.93;116.68;;;13.10;94.20;;;;;;4998750;28;20049;-80
2022/04/13 06:26:34;;;;;;;132.77;120.97;;;13.20;94.30;;;;;;5014670;28;20054;-81
2022/04/13 06:29:00;;;;;;;;;;;13.20;94.40;;;;;;5032617;28;20109;-80
2022/04/13 06:31:27;;;;;;;;;;;13.20;94.10;;;;;;5016222;28;19925;-82
2022/04/13 06:33:56;;;;;;;128.45;116.60;;;13.20;94.40;;;;;;5014783;28;19948;-81
2022/04/13 06:36:23;;;;;;;128.93;117.10;;;13.30;94.80;;;;;;4998400;28;20193;-80
2022/04/13 06:38:50;;;;;;;129.63;117.63;;;13.30;95.00;;;;;;5013205;28;20516;-79
2022/04/13 06:41:16;;;;;;;128.63;116.93;;;13.40;95.30;;;;;;4998805;28;20140;-80
2022/04/13 06:43:43;;;;;;;127.43;115.75;;;13.40;95.40;;;;;;5032097;28;20472;-80
2022/04/13 06:46:10;;;;;;;128.75;116.72;;;13.40;95.50;;;;;;5014465;28;20050;-80
2022/04/13 06:48:37;;;;;;;;;;;13.40;95.60;;;;;;5015571;28;20050;-80
2022/04/13 06:51:06;;;;;;;126.25;114.70;;;13.50;95.40;;;;;;5014599;28;19925;-79
2022/04/13 06:53:33;;;;;;;125.13;113.53;;;13.50;95.50;;;;;;5012785;28;20144;-81
2022/04/13 06:56:00;;;;;;;125.78;114.10;;;13.60;95.80;;;;;;4996989;28;20083;-81
2022/04/13 06:58:27;;;;;;;128.02;116.45;;;13.60;95.90;;;;;;5011938;28;20512;-79
2022/04/13 07:00:57;;;;;;;126.20;114.50;;;13.70;96.00;;;;;;5012774;28;20064;-80
2022/04/13 07:03:24;;;;;;;123.65;112.40;;;13.70;96.10;;;;;;5013413;28;20046;-80
2022/04/13 07:05:51;;;;;;;123.38;112.25;;;13.80;96.10;;;;;;5011817;28;20104;-79
2022/04/13 07:08:20;;;;;;;128.30;116.53;;;13.90;96.20;;;;;;5012540;28;20137;-79
2022/04/13 07:10:47;;;;;;;126.47;115.20;;;13.90;96.10;;;;;;5030570;28;20077;-79
2022/04/13 07:13:14;;;;;;;125.13;114.13;;;14.00;96.10;;;;;;5012349;28;20058;-79
2022/04/13 07:15:41;;;;;;;124.82;113.50;;;14.00;96.00;;;;;;5031150;28;20104;-79
2022/04/13 07:18:09;;;;;;;124.45;113.47;;;14.00;96.20;;;;;;5012906;28;20630;-80
2022/04/13 07:20:36;;;;;;;126.50;114.85;;;14.10;96.20;;;;;;5013122;28;20062;-81
2022/04/13 07:23:03;;;;;;;124.95;113.63;;;14.10;96.20;;;;;;5012871;28;20046;-80
2022/04/13 07:25:31;;;;;;;123.78;112.82;;;14.10;96.40;;;;;;5030902;28;20053;-80
2022/04/13 07:27:58;;;;;;;121.07;110.10;;;14.20;96.40;;;;;;5013289;28;20050;-80
2022/04/13 07:30:25;;;;;;;121.32;110.88;;;14.30;96.30;;;;;;5031519;28;20078;-81
2022/04/13 07:32:53;;;;;;;121.50;110.55;;;14.40;96.20;;;;;;5013424;28;20489;-80
2022/04/13 07:35:20;;;;;;;123.68;112.22;;;14.30;96.20;;;;;;5013147;28;20133;-80
2022/04/13 07:37:47;;;;;;;120.95;110.43;;;14.40;96.20;;;;;;5013219;28;20072;-80
2022/04/13 07:40:17;;;;;;;125.18;113.80;;;14.50;96.10;;;;;;5012786;28;20132;-86
2022/04/13 07:42:45;;;;;;;124.85;113.43;;;14.50;96.00;;;;;;5013017;28;20531;-81
2022/04/13 07:45:12;;;;;;;126.00;114.97;;;14.50;96.20;;;;;;5010223;28;20054;-81
2022/04/13 07:47:39;;;;;;;124.55;113.45;;;14.50;96.20;;;;;;5012872;28;20070;-82
2022/04/13 07:50:11;;;;;;;126.53;115.13;;;14.60;96.20;;;;;;4975563;28;1075130;-81
2022/04/13 07:52:38;;;;;;;125.43;114.43;;;14.60;96.30;;;;;;4998075;28;20057;-81
2022/04/13 07:55:07;;;;;;;127.60;115.93;;;14.60;96.30;;;;;;5014054;28;20050;-83
2022/04/13 07:57:34;;;;;;;126.57;115.13;;;14.60;96.40;;;;;;5014048;28;20674;-82
2022/04/13 08:00:02;;;;;;;132.00;120.40;;;14.70;96.40;;;;;;5013288;28;20050;-81
2022/04/13 08:02:41;;;;;;;125.70;114.78;;;14.70;96.40;;;;;;5015652;28;20058;-81
2022/04/13 08:05:09;;;;;;;123.85;112.80;;;14.70;96.30;;;;;;5012354;28;20133;-81
2022/04/13 08:07:36;;;;;;;117.57;107.03;;;14.80;96.40;;;;;;5027062;28;20058;-81
2022/04/13 08:10:04;;;;;;;116.25;105.90;;;14.70;96.30;;;;;;5014348;28;20062;-81
2022/04/13 08:12:32;;;;;;;119.72;109.25;;;14.80;96.30;;;;;;5018050;28;20046;-81
2022/04/13 08:15:00;;;;;;;119.35;108.40;;;14.80;96.20;;;;;;5017800;28;20054;-81
2022/04/13 08:17:29;;;;;;;116.90;106.78;;;14.90;96.20;;;;;;5017722;28;20058;-81
2022/04/13 08:19:56;;;;;;;117.90;107.50;;;14.90;96.10;;;;;;4998878;28;20077;-81
2022/04/13 08:22:24;;;;;;;118.13;107.82;;;14.90;96.00;;;;;;5017816;28;20496;-82
2022/04/13 08:24:51;;;;;;;118.50;108.13;;;14.90;95.90;;;;;;5018401;28;20080;-79
2022/04/13 08:27:18;;;;;;;120.38;109.65;;;14.90;96.00;;;;;;5017645;28;20543;-80
2022/04/13 08:29:45;;;;;;;118.25;107.90;;;14.90;96.00;;;;;;5017754;28;20643;-79
2022/04/13 08:32:12;;;;;;;119.70;109.30;;;14.90;96.00;;;;;;5018326;28;20050;-79
2022/04/13 08:34:40;;;;;;;120.53;109.88;;;14.90;96.00;;;;;;5016880;28;20130;-79
2022/04/13 08:37:08;;;;;;;121.40;111.00;;;14.90;96.00;;;;;;5001511;28;20054;-79
2022/04/13 08:39:34;;;;;;;120.00;109.63;;;14.90;96.20;;;;;;5018160;28;20062;-79
2022/04/13 08:42:10;;;;;;;118.10;108.00;;;14.90;96.30;;;;;;5018168;28;20042;-79
2022/04/13 08:44:51;;;;;;;119.45;108.90;;;14.90;96.30;;;;;;5017020;28;20584;-81
2022/04/13 08:47:20;;;;;;;118.13;107.82;;;14.90;96.20;;;;;;5017156;28;20056;-82
2022/04/13 08:49:52;;;;;;;118.60;108.47;;;15.00;96.20;;;;;;5033634;28;20057;-81
2022/04/13 08:52:22;;;;;;;117.45;107.47;;;15.00;96.30;;;;;;5017377;28;20053;-81
2022/04/13 08:55:02;;;;;;;118.03;107.82;;;15.10;96.20;;;;;;5017150;28;20586;-81
2022/04/13 08:57:31;;;;;;;115.60;105.88;;;15.10;95.90;;;;;;5016170;28;20049;-81
2022/04/13 09:00:09;;;;;;;116.60;106.45;;;15.10;95.80;;;;;;5017271;28;20058;-81
2022/04/13 09:03:18;;;;;;;116.25;106.35;;;15.20;95.80;;;;;;5017566;28;20497;-81
2022/04/13 09:05:49;;;;;;;116.35;106.45;;;15.30;95.60;;;;;;5017184;28;20473;-80
2022/04/13 09:08:23;;;;;;;116.40;106.28;;;15.40;95.60;;;;;;5016516;28;20137;-79
2022/04/13 09:10:52;;;;;;;118.07;107.78;;;15.40;95.50;;;;;;5000882;28;20103;-80
2022/04/13 09:13:20;;;;;;;117.95;107.80;;;15.40;95.60;;;;;;5012968;28;20050;-79
2022/04/13 09:15:48;;;;;;;115.88;105.88;;;15.50;95.70;;;;;;5016561;28;20128;-79
2022/04/13 09:18:15;;;;;;;119.35;109.03;;;15.50;95.50;;;;;;5016506;28;20539;-79
2022/04/13 09:20:42;;;;;;;117.43;107.38;;;15.60;95.40;;;;;;5016885;28;20057;-79
2022/04/13 09:23:10;;;;;;;117.38;107.00;;;15.60;95.30;;;;;;5017515;28;20057;-79
2022/04/13 09:25:38;;;;;;;118.05;107.82;;;15.70;95.40;;;;;;5035014;28;20430;-78
2022/04/13 09:28:05;;;;;;;116.78;106.78;;;15.70;95.30;;;;;;5016993;28;20052;-79
2022/04/13 09:30:34;;;;;;;116.45;106.57;;;15.80;95.50;;;;;;5017337;28;20050;-79
2022/04/13 09:33:02;;;;;;;116.07;106.20;;;15.80;95.40;;;;;;5017308;28;20065;-79
2022/04/13 09:35:31;;;;;;;115.90;105.72;;;15.90;95.30;;;;;;5017129;28;20524;-80
2022/04/13 09:38:01;;;;;;;116.22;106.20;;;16.00;95.20;;;;;;5016775;28;20050;-80
2022/04/13 09:40:35;;;;;;;117.85;107.80;;;16.00;95.20;;;;;;5000625;28;20053;-80
2022/04/13 09:43:07;;;;;;;118.60;108.38;;;16.10;95.20;;;;;;5016864;28;20519;-80
2022/04/13 09:45:35;;;;;;;115.93;106.28;;;16.10;95.10;;;;;;5017316;28;20121;-80
2022/04/13 09:48:06;;;;;;;114.63;105.22;;;16.20;95.20;;;;;;5017128;28;20140;-80
2022/04/13 09:50:33;;;;;;;119.60;109.28;;;16.20;95.00;;;;;;5016502;28;20054;-80
2022/04/13 09:53:03;;;;;;;120.15;110.15;;;16.30;95.20;;;;;;5027779;28;20053;-80
2022/04/13 09:55:34;;;;;;;120.70;110.60;;;16.30;95.00;;;;;;5040059;28;20056;-80
2022/04/13 09:58:09;;;;;;;123.93;113.65;;;16.40;94.80;;;;;;5015664;28;20054;-82
2022/04/13 10:00:37;;;;;;;119.65;109.72;;;16.50;94.40;;;;;;5013122;28;20056;-81
2022/04/13 10:03:10;;;;;;;119.38;109.35;;;16.60;94.30;;;;;;5008698;28;20097;-80
2022/04/13 10:05:37;;;;;;;121.07;110.72;;;16.60;94.60;;;;;;5030545;28;20523;-80
2022/04/13 10:08:06;;;;;;;119.85;109.80;;;16.70;94.50;;;;;;4997940;28;20153;-81
2022/04/13 10:10:34;;;;;;;121.10;110.95;;;16.80;94.50;;;;;;5016384;28;20050;-81
2022/04/13 10:13:02;;;;;;;120.25;110.18;;;16.80;93.90;;;;;;5014948;28;20050;-81
2022/04/13 10:15:30;;;;;;;122.65;112.38;;;16.90;93.80;;;;;;4999377;28;20046;-81
2022/04/13 10:18:01;;;;;;;122.43;112.07;;;17.00;94.10;;;;;;5015618;28;20520;-81
2022/04/13 10:20:45;;;;;;;119.53;109.60;;;17.00;93.80;;;;;;5014176;28;20423;-80
2022/04/13 10:23:13;;;;;;;122.32;112.22;;;17.10;93.80;;;;;;5013532;28;20064;-81
2022/04/13 10:25:41;;;;;;;121.78;111.68;;;17.20;93.40;;;;;;5017802;28;20042;-81
2022/04/13 10:28:12;;;;;;;120.80;110.93;;;17.30;93.00;;;;;;5015636;28;20057;-80
2022/04/13 10:30:41;;;;;;;121.72;111.88;;;17.30;92.90;;;;;;5033566;28;20128;-80
2022/04/13 10:33:10;;;;;;;122.25;112.15;;;17.40;93.00;;;;;;5032406;28;20049;-80
2022/04/13 10:35:38;;;;;;;122.03;111.90;;;17.50;92.90;;;;;;5015188;28;20050;-84
2022/04/13 10:38:05;;;;;;;121.30;111.40;;;17.60;92.80;;;;;;5014539;28;20054;-83
2022/04/13 10:40:34;;;;;;;123.32;113.20;;;17.60;92.80;;;;;;5015250;28;20045;-83
2022/04/13 10:43:05;;;;;;;120.78;110.88;;;17.70;92.10;;;;;;5014406;28;20060;-84
2022/04/13 10:45:34;;;;;;;118.88;109.28;;;17.80;91.60;;;;;;5014370;28;20144;-84
2022/04/13 10:48:04;;;;;;;120.35;110.75;;;17.80;91.60;;;;;;4998376;28;20483;-86
2022/04/13 10:50:42;;;;;;;117.85;108.18;;;17.90;91.20;;;;;;4998241;28;20112;-83
2022/04/13 10:53:21;;;;;;;116.95;107.57;;;18.00;91.10;;;;;;5015093;28;20089;-87
2022/04/13 10:55:58;;;;;;;117.10;107.80;;;18.00;90.10;;;;;;4997725;28;20054;-85
2022/04/13 10:58:44;;;;;;;120.88;111.22;;;18.00;90.10;;;;;;4997608;28;20057;-84
2022/04/13 11:01:13;;;;;;;118.88;109.38;;;18.10;89.20;;;;;;5014933;28;20054;-83
2022/04/13 11:03:41;;;;;;;116.15;106.72;;;18.10;89.30;;;;;;5015332;28;20046;-84
2022/04/13 11:06:11;;;;;;;118.05;108.65;;;18.10;88.30;;;;;;4998052;28;20141;-82
2022/04/13 11:08:46;;;;;;;117.28;107.82;;;18.10;85.60;;;;;;5014930;28;20078;-82
2022/04/13 11:11:19;;;;;;;117.65;108.13;;;18.10;86.10;;;;;;5029425;28;20152;-82
2022/04/13 11:13:52;;;;;;;116.45;107.10;;;18.10;84.20;;;;;;5015397;28;20050;-83
2022/04/13 11:16:20;;;;;;;116.82;107.53;;;18.10;83.60;;;;;;5015410;28;20053;-85
2022/04/13 11:19:21;;;;;;;116.57;107.18;;;18.10;83.80;;;;;;4997525;28;20508;-83
2022/04/13 11:22:14;;;;;;;118.35;108.57;;;18.10;85.40;;;;;;5014219;28;20057;-82
2022/04/13 11:24:54;;;;;;;117.38;108.00;;;18.10;84.50;;;;;;5014861;28;20050;-82
2022/04/13 11:27:22;;;;;;;117.40;107.82;;;18.10;84.60;;;;;;5011939;28;20050;-86
2022/04/13 11:30:00;;;;;;;120.43;110.82;;;18.10;84.80;;;;;;4998067;28;20050;-83
2022/04/13 11:32:32;;;;;;;119.70;109.95;;;18.20;84.60;;;;;;5012665;28;20064;-83
2022/04/13 11:35:00;;;;;;;118.78;109.07;;;18.10;84.80;;;;;;4997866;28;20497;-83
2022/04/13 11:37:42;;;;;;;120.20;110.40;;;18.20;85.20;;;;;;5014272;28;20068;-83
2022/04/13 11:40:12;;;;;;;117.38;107.57;;;18.20;85.10;;;;;;5011935;28;20058;-83
2022/04/13 11:42:52;;;;;;;115.88;106.05;;;18.10;83.80;;;;;;5014763;28;20141;-83
2022/04/13 11:45:22;;;;;;;114.78;105.30;;;18.20;84.50;;;;;;4998261;28;20516;-83
2022/04/13 11:47:58;;;;;;;117.35;107.78;;;18.00;84.30;;;;;;5012230;28;20117;-83
2022/04/13 11:50:27;;;;;;;118.85;108.90;;;18.00;83.50;;;;;;5027033;28;20054;-83
2022/04/13 11:52:55;;;;;;;117.63;107.85;;;17.90;85.40;;;;;;5013918;28;20498;-83
2022/04/13 11:55:25;;;;;;;118.15;108.15;;;17.90;87.10;;;;;;5014001;28;20042;-83
2022/04/13 11:57:58;;;;;;;120.32;110.63;;;17.90;86.90;;;;;;5013524;28;20050;-83
2022/04/13 12:00:41;;;;;;;124.70;114.32;;;17.80;87.70;;;;;;4996420;28;20054;-83
2022/04/13 12:03:16;;;;;;;118.32;108.93;;;17.90;87.60;;;;;;4997709;28;20061;-83
2022/04/13 12:05:45;;;;;;;116.95;107.47;;;17.80;84.00;;;;;;5014081;28;20089;-83
2022/04/13 12:08:14;;;;;;;118.10;108.45;;;17.80;84.10;;;;;;5013786;28;20089;-83
2022/04/13 12:10:46;;;;;;;117.15;107.38;;;17.70;86.80;;;;;;5014012;28;20054;-83
2022/04/13 12:13:13;;;;;;;117.65;107.85;;;17.70;84.20;;;;;;4995928;28;20049;-83
2022/04/13 12:15:47;;;;;;;119.15;109.15;;;17.60;82.70;;;;;;5012914;28;20042;-83
2022/04/13 12:18:14;;;;;;;119.22;109.35;;;17.60;84.90;;;;;;5013561;28;20220;-83